sensor_id;sensor_type;location;lat;lon;timestamp;temperature;humidity
38464;DHT22;24243;51.956;5.902;2024-03-02T00:01:44;20.00;59.00
38464;DHT22;24243;51.956;5.902;2024-03-02T00:04:28;20.00;59.00
38464;DHT22;24243;51.956;5.902;2024-03-02T00:07:13;20.00;59.00
38464;DHT22;24243;51.956;5.902;2024-03-02T00:09:58;20.00;58.90
38464;DHT22;24243;51.956;5.902;2024-03-02T00:12:42;20.00;58.90
38464;DHT22;24243;51.956;5.902;2024-03-02T00:15:36;20.00;58.90
38464;DHT22;24243;51.956;5.902;2024-03-02T00:21:08;20.00;58.90
38464;DHT22;24243;51.956;5.902;2024-03-02T00:23:53;20.00;58.90
38464;DHT22;24243;51.956;5.902;2024-03-02T00:26:37;19.90;58.80
38464;DHT22;24243;51.956;5.902;2024-03-02T00:29:22;19.90;58.80
38464;DHT22;24243;51.956;5.902;2024-03-02T00:32:11;19.90;58.80
38464;DHT22;24243;51.956;5.902;2024-03-02T00:34:56;19.90;58.70
38464;DHT22;24243;51.956;5.902;2024-03-02T00:37:40;19.90;58.70
38464;DHT22;24243;51.956;5.902;2024-03-02T00:40:27;19.90;58.70
38464;DHT22;24243;51.956;5.902;2024-03-02T00:43:57;19.90;58.70
38464;DHT22;24243;51.956;5.902;2024-03-02T00:46:16;19.90;58.70
38464;DHT22;24243;51.956;5.902;2024-03-02T00:49:00;19.90;58.70
38464;DHT22;24243;51.956;5.902;2024-03-02T00:51:46;19.90;58.70
38464;DHT22;24243;51.956;5.902;2024-03-02T00:54:31;19.90;58.70
38464;DHT22;24243;51.956;5.902;2024-03-02T00:57:15;19.90;58.70
38464;DHT22;24243;51.956;5.902;2024-03-02T01:00:00;19.80;58.60
38464;DHT22;24243;51.956;5.902;2024-03-02T01:02:44;19.80;58.60
38464;DHT22;24243;51.956;5.902;2024-03-02T01:05:30;19.80;58.60
38464;DHT22;24243;51.956;5.902;2024-03-02T01:08:14;19.80;58.60
38464;DHT22;24243;51.956;5.902;2024-03-02T01:10:59;19.80;58.50
38464;DHT22;24243;51.956;5.902;2024-03-02T01:13:43;19.80;58.50
38464;DHT22;24243;51.956;5.902;2024-03-02T01:16:27;19.80;58.50
38464;DHT22;24243;51.956;5.902;2024-03-02T01:19:11;19.80;58.50
38464;DHT22;24243;51.956;5.902;2024-03-02T01:21:56;19.80;58.50
38464;DHT22;24243;51.956;5.902;2024-03-02T01:24:40;19.80;58.50
38464;DHT22;24243;51.956;5.902;2024-03-02T01:27:25;19.80;58.50
38464;DHT22;24243;51.956;5.902;2024-03-02T01:30:09;19.80;58.50
38464;DHT22;24243;51.956;5.902;2024-03-02T01:32:54;19.80;58.50
38464;DHT22;24243;51.956;5.902;2024-03-02T01:35:38;19.80;58.50
38464;DHT22;24243;51.956;5.902;2024-03-02T01:38:23;19.70;58.40
38464;DHT22;24243;51.956;5.902;2024-03-02T01:41:07;19.70;58.40
38464;DHT22;24243;51.956;5.902;2024-03-02T01:43:51;19.70;58.40
38464;DHT22;24243;51.956;5.902;2024-03-02T01:46:35;19.70;58.40
38464;DHT22;24243;51.956;5.902;2024-03-02T01:49:20;19.70;58.40
38464;DHT22;24243;51.956;5.902;2024-03-02T01:52:04;19.70;58.40
38464;DHT22;24243;51.956;5.902;2024-03-02T01:54:48;19.70;58.40
38464;DHT22;24243;51.956;5.902;2024-03-02T01:57:33;19.70;58.40
38464;DHT22;24243;51.956;5.902;2024-03-02T02:00:17;19.70;58.40
38464;DHT22;24243;51.956;5.902;2024-03-02T02:03:02;19.70;58.40
38464;DHT22;24243;51.956;5.902;2024-03-02T02:05:46;19.70;58.40
38464;DHT22;24243;51.956;5.902;2024-03-02T02:08:32;19.60;58.30
38464;DHT22;24243;51.956;5.902;2024-03-02T02:11:16;19.70;58.40
38464;DHT22;24243;51.956;5.902;2024-03-02T02:14:00;19.60;58.30
38464;DHT22;24243;51.956;5.902;2024-03-02T02:16:45;19.70;58.40
38464;DHT22;24243;51.956;5.902;2024-03-02T02:19:29;19.70;58.30
38464;DHT22;24243;51.956;5.902;2024-03-02T02:22:14;19.70;59.00
38464;DHT22;24243;51.956;5.902;2024-03-02T02:24:58;19.60;58.30
38464;DHT22;24243;51.956;5.902;2024-03-02T02:27:42;19.60;58.30
38464;DHT22;24243;51.956;5.902;2024-03-02T02:30:27;19.60;58.30
38464;DHT22;24243;51.956;5.902;2024-03-02T02:33:12;19.60;58.30
38464;DHT22;24243;51.956;5.902;2024-03-02T02:35:56;19.60;58.30
38464;DHT22;24243;51.956;5.902;2024-03-02T02:38:42;19.60;58.30
38464;DHT22;24243;51.956;5.902;2024-03-02T02:41:28;19.60;58.30
38464;DHT22;24243;51.956;5.902;2024-03-02T02:44:12;19.60;58.30
38464;DHT22;24243;51.956;5.902;2024-03-02T02:46:56;19.60;58.30
38464;DHT22;24243;51.956;5.902;2024-03-02T02:49:41;19.60;58.30
38464;DHT22;24243;51.956;5.902;2024-03-02T02:52:25;19.60;58.20
38464;DHT22;24243;51.956;5.902;2024-03-02T02:55:10;19.60;58.30
38464;DHT22;24243;51.956;5.902;2024-03-02T02:57:55;19.60;58.20
38464;DHT22;24243;51.956;5.902;2024-03-02T03:00:40;19.50;58.20
38464;DHT22;24243;51.956;5.902;2024-03-02T03:03:24;19.60;58.20
38464;DHT22;24243;51.956;5.902;2024-03-02T03:06:08;19.50;58.20
38464;DHT22;24243;51.956;5.902;2024-03-02T03:08:52;19.60;58.20
38464;DHT22;24243;51.956;5.902;2024-03-02T03:11:37;19.50;58.20
38464;DHT22;24243;51.956;5.902;2024-03-02T03:14:21;19.50;58.20
38464;DHT22;24243;51.956;5.902;2024-03-02T03:17:05;19.50;58.20
38464;DHT22;24243;51.956;5.902;2024-03-02T03:19:51;19.50;58.20
38464;DHT22;24243;51.956;5.902;2024-03-02T03:22:35;19.50;58.20
38464;DHT22;24243;51.956;5.902;2024-03-02T03:25:20;19.50;58.20
38464;DHT22;24243;51.956;5.902;2024-03-02T03:28:04;19.50;58.20
38464;DHT22;24243;51.956;5.902;2024-03-02T03:30:48;19.50;58.20
38464;DHT22;24243;51.956;5.902;2024-03-02T03:33:32;19.50;58.20
38464;DHT22;24243;51.956;5.902;2024-03-02T03:36:17;19.50;58.20
38464;DHT22;24243;51.956;5.902;2024-03-02T03:39:01;19.50;58.20
38464;DHT22;24243;51.956;5.902;2024-03-02T03:41:47;19.50;58.20
38464;DHT22;24243;51.956;5.902;2024-03-02T03:44:31;19.50;58.20
38464;DHT22;24243;51.956;5.902;2024-03-02T03:47:15;19.50;58.10
38464;DHT22;24243;51.956;5.902;2024-03-02T03:50:00;19.50;58.20
38464;DHT22;24243;51.956;5.902;2024-03-02T03:52:44;19.50;58.20
38464;DHT22;24243;51.956;5.902;2024-03-02T03:55:28;19.50;58.10
38464;DHT22;24243;51.956;5.902;2024-03-02T03:58:12;19.50;58.10
38464;DHT22;24243;51.956;5.902;2024-03-02T04:00:57;19.50;58.20
38464;DHT22;24243;51.956;5.902;2024-03-02T04:03:41;19.40;58.10
38464;DHT22;24243;51.956;5.902;2024-03-02T04:06:26;19.40;58.10
38464;DHT22;24243;51.956;5.902;2024-03-02T04:09:10;19.40;58.10
38464;DHT22;24243;51.956;5.902;2024-03-02T04:11:54;19.40;58.10
38464;DHT22;24243;51.956;5.902;2024-03-02T04:14:38;19.40;58.10
38464;DHT22;24243;51.956;5.902;2024-03-02T04:17:22;19.40;58.10
38464;DHT22;24243;51.956;5.902;2024-03-02T04:20:07;19.40;58.10
38464;DHT22;24243;51.956;5.902;2024-03-02T04:22:51;19.40;58.00
38464;DHT22;24243;51.956;5.902;2024-03-02T04:25:35;19.40;58.00
38464;DHT22;24243;51.956;5.902;2024-03-02T04:28:20;19.40;58.00
38464;DHT22;24243;51.956;5.902;2024-03-02T04:31:05;19.40;58.10
38464;DHT22;24243;51.956;5.902;2024-03-02T04:33:49;19.40;58.00
38464;DHT22;24243;51.956;5.902;2024-03-02T04:36:33;19.40;58.00
38464;DHT22;24243;51.956;5.902;2024-03-02T04:39:17;19.40;58.00
38464;DHT22;24243;51.956;5.902;2024-03-02T04:42:01;19.40;58.00
38464;DHT22;24243;51.956;5.902;2024-03-02T04:44:47;19.40;58.00
38464;DHT22;24243;51.956;5.902;2024-03-02T04:47:31;19.40;58.00
38464;DHT22;24243;51.956;5.902;2024-03-02T04:50:15;19.40;58.00
38464;DHT22;24243;51.956;5.902;2024-03-02T04:52:59;19.40;58.00
38464;DHT22;24243;51.956;5.902;2024-03-02T04:55:43;19.40;58.00
38464;DHT22;24243;51.956;5.902;2024-03-02T04:58:28;19.40;58.00
38464;DHT22;24243;51.956;5.902;2024-03-02T05:01:12;19.40;58.00
38464;DHT22;24243;51.956;5.902;2024-03-02T05:03:56;19.30;57.90
38464;DHT22;24243;51.956;5.902;2024-03-02T05:06:40;19.40;58.00
38464;DHT22;24243;51.956;5.902;2024-03-02T05:09:25;19.40;58.00
38464;DHT22;24243;51.956;5.902;2024-03-02T05:12:09;19.40;58.00
38464;DHT22;24243;51.956;5.902;2024-03-02T05:15:13;19.40;58.00
38464;DHT22;24243;51.956;5.902;2024-03-02T05:17:57;19.30;57.90
38464;DHT22;24243;51.956;5.902;2024-03-02T05:20:43;19.30;57.90
38464;DHT22;24243;51.956;5.902;2024-03-02T05:23:27;19.40;58.00
38464;DHT22;24243;51.956;5.902;2024-03-02T05:26:11;19.30;57.90
38464;DHT22;24243;51.956;5.902;2024-03-02T05:28:56;19.40;58.00
38464;DHT22;24243;51.956;5.902;2024-03-02T05:31:40;19.30;57.90
38464;DHT22;24243;51.956;5.902;2024-03-02T05:34:24;19.30;57.90
38464;DHT22;24243;51.956;5.902;2024-03-02T05:37:09;19.30;57.90
38464;DHT22;24243;51.956;5.902;2024-03-02T05:39:53;19.30;57.90
38464;DHT22;24243;51.956;5.902;2024-03-02T05:42:37;19.30;57.90
38464;DHT22;24243;51.956;5.902;2024-03-02T05:45:22;19.30;57.90
38464;DHT22;24243;51.956;5.902;2024-03-02T05:48:07;19.30;57.90
38464;DHT22;24243;51.956;5.902;2024-03-02T05:50:51;19.30;57.90
38464;DHT22;24243;51.956;5.902;2024-03-02T05:53:35;19.30;57.90
38464;DHT22;24243;51.956;5.902;2024-03-02T05:56:22;19.30;57.90
38464;DHT22;24243;51.956;5.902;2024-03-02T05:59:06;19.30;57.90
38464;DHT22;24243;51.956;5.902;2024-03-02T06:01:56;19.30;57.90
38464;DHT22;24243;51.956;5.902;2024-03-02T06:04:40;19.30;57.90
38464;DHT22;24243;51.956;5.902;2024-03-02T06:07:24;19.30;57.90
38464;DHT22;24243;51.956;5.902;2024-03-02T06:10:09;19.30;57.90
38464;DHT22;24243;51.956;5.902;2024-03-02T06:12:53;19.30;57.90
38464;DHT22;24243;51.956;5.902;2024-03-02T06:15:37;19.30;57.90
38464;DHT22;24243;51.956;5.902;2024-03-02T06:18:22;19.20;57.80
38464;DHT22;24243;51.956;5.902;2024-03-02T06:21:06;19.20;57.90
38464;DHT22;24243;51.956;5.902;2024-03-02T06:23:50;19.20;57.90
38464;DHT22;24243;51.956;5.902;2024-03-02T06:26:34;19.20;57.90
38464;DHT22;24243;51.956;5.902;2024-03-02T06:29:19;19.20;57.90
38464;DHT22;24243;51.956;5.902;2024-03-02T06:32:03;19.20;57.90
38464;DHT22;24243;51.956;5.902;2024-03-02T06:34:47;19.20;57.90
38464;DHT22;24243;51.956;5.902;2024-03-02T06:37:31;19.20;57.90
38464;DHT22;24243;51.956;5.902;2024-03-02T06:40:16;19.20;57.90
38464;DHT22;24243;51.956;5.902;2024-03-02T06:43:00;19.20;57.90
38464;DHT22;24243;51.956;5.902;2024-03-02T06:45:44;19.20;57.80
38464;DHT22;24243;51.956;5.902;2024-03-02T06:48:28;19.20;57.90
38464;DHT22;24243;51.956;5.902;2024-03-02T06:51:14;19.20;57.90
38464;DHT22;24243;51.956;5.902;2024-03-02T06:53:59;19.20;57.90
38464;DHT22;24243;51.956;5.902;2024-03-02T06:56:44;19.10;57.80
38464;DHT22;24243;51.956;5.902;2024-03-02T06:59:28;19.20;57.90
38464;DHT22;24243;51.956;5.902;2024-03-02T07:02:13;19.20;57.90
38464;DHT22;24243;51.956;5.902;2024-03-02T07:04:57;19.20;57.90
38464;DHT22;24243;51.956;5.902;2024-03-02T07:07:41;19.20;57.90
38464;DHT22;24243;51.956;5.902;2024-03-02T07:10:25;19.20;57.90
38464;DHT22;24243;51.956;5.902;2024-03-02T07:13:10;19.30;57.90
38464;DHT22;24243;51.956;5.902;2024-03-02T07:15:54;19.30;57.90
38464;DHT22;24243;51.956;5.902;2024-03-02T07:18:38;19.40;57.80
38464;DHT22;24243;51.956;5.902;2024-03-02T07:21:25;19.40;58.30
38464;DHT22;24243;51.956;5.902;2024-03-02T07:24:09;19.40;57.70
38464;DHT22;24243;51.956;5.902;2024-03-02T07:26:57;19.50;57.70
38464;DHT22;24243;51.956;5.902;2024-03-02T07:29:42;19.60;57.60
38464;DHT22;24243;51.956;5.902;2024-03-02T07:32:26;19.70;57.50
38464;DHT22;24243;51.956;5.902;2024-03-02T07:35:11;19.80;57.30
38464;DHT22;24243;51.956;5.902;2024-03-02T07:37:56;19.90;57.20
38464;DHT22;24243;51.956;5.902;2024-03-02T07:40:40;20.00;57.20
38464;DHT22;24243;51.956;5.902;2024-03-02T07:43:25;20.00;57.20
38464;DHT22;24243;51.956;5.902;2024-03-02T07:46:09;20.10;57.30
38464;DHT22;24243;51.956;5.902;2024-03-02T07:48:53;20.10;57.20
38464;DHT22;24243;51.956;5.902;2024-03-02T07:51:37;20.10;56.90
38464;DHT22;24243;51.956;5.902;2024-03-02T07:54:22;20.10;56.60
38464;DHT22;24243;51.956;5.902;2024-03-02T07:57:07;20.20;56.40
38464;DHT22;24243;51.956;5.902;2024-03-02T07:59:51;20.10;56.10
38464;DHT22;24243;51.956;5.902;2024-03-02T08:02:35;20.10;55.80
38464;DHT22;24243;51.956;5.902;2024-03-02T08:05:19;20.10;55.70
38464;DHT22;24243;51.956;5.902;2024-03-02T08:08:04;20.00;55.50
38464;DHT22;24243;51.956;5.902;2024-03-02T08:10:49;20.00;55.40
38464;DHT22;24243;51.956;5.902;2024-03-02T08:13:33;20.00;55.20
38464;DHT22;24243;51.956;5.902;2024-03-02T08:16:17;19.90;55.00
38464;DHT22;24243;51.956;5.902;2024-03-02T08:19:04;19.90;54.80
38464;DHT22;24243;51.956;5.902;2024-03-02T08:21:49;19.90;54.70
38464;DHT22;24243;51.956;5.902;2024-03-02T08:24:33;19.90;54.60
38464;DHT22;24243;51.956;5.902;2024-03-02T08:27:18;19.80;54.50
38464;DHT22;24243;51.956;5.902;2024-03-02T08:30:02;19.80;54.40
38464;DHT22;24243;51.956;5.902;2024-03-02T08:32:50;19.80;54.30
38464;DHT22;24243;51.956;5.902;2024-03-02T08:35:34;19.80;54.20
38464;DHT22;24243;51.956;5.902;2024-03-02T08:38:20;19.80;54.10
38464;DHT22;24243;51.956;5.902;2024-03-02T08:41:04;19.80;53.60
38464;DHT22;24243;51.956;5.902;2024-03-02T08:43:48;19.70;53.20
38464;DHT22;24243;51.956;5.902;2024-03-02T08:46:33;19.70;52.90
38464;DHT22;24243;51.956;5.902;2024-03-02T08:49:17;19.60;49.70
38464;DHT22;24243;51.956;5.902;2024-03-02T08:52:01;19.60;49.70
38464;DHT22;24243;51.956;5.902;2024-03-02T08:54:45;19.50;50.00
38464;DHT22;24243;51.956;5.902;2024-03-02T08:57:30;19.50;50.10
38464;DHT22;24243;51.956;5.902;2024-03-02T09:00:14;19.50;50.10
38464;DHT22;24243;51.956;5.902;2024-03-02T09:02:59;19.40;50.00
38464;DHT22;24243;51.956;5.902;2024-03-02T09:05:43;19.40;50.10
38464;DHT22;24243;51.956;5.902;2024-03-02T09:08:27;19.40;50.00
38464;DHT22;24243;51.956;5.902;2024-03-02T09:11:11;19.40;50.00
38464;DHT22;24243;51.956;5.902;2024-03-02T09:13:56;19.30;49.90
38464;DHT22;24243;51.956;5.902;2024-03-02T09:16:41;19.20;49.80
38464;DHT22;24243;51.956;5.902;2024-03-02T09:19:26;19.20;49.70
38464;DHT22;24243;51.956;5.902;2024-03-02T09:22:10;19.20;49.60
38464;DHT22;24243;51.956;5.902;2024-03-02T09:24:54;19.20;49.60
38464;DHT22;24243;51.956;5.902;2024-03-02T09:27:39;19.10;49.60
38464;DHT22;24243;51.956;5.902;2024-03-02T09:30:23;19.10;49.50
38464;DHT22;24243;51.956;5.902;2024-03-02T09:33:07;19.00;49.50
38464;DHT22;24243;51.956;5.902;2024-03-02T09:35:51;19.00;49.40
38464;DHT22;24243;51.956;5.902;2024-03-02T09:38:36;19.00;49.30
38464;DHT22;24243;51.956;5.902;2024-03-02T09:41:20;19.00;49.20
38464;DHT22;24243;51.956;5.902;2024-03-02T09:44:05;19.00;49.20
38464;DHT22;24243;51.956;5.902;2024-03-02T09:46:52;18.90;49.10
38464;DHT22;24243;51.956;5.902;2024-03-02T09:49:36;18.90;49.00
38464;DHT22;24243;51.956;5.902;2024-03-02T09:52:21;18.90;49.00
38464;DHT22;24243;51.956;5.902;2024-03-02T09:55:05;18.90;49.00
38464;DHT22;24243;51.956;5.902;2024-03-02T09:57:49;18.90;49.00
38464;DHT22;24243;51.956;5.902;2024-03-02T10:00:34;18.90;49.00
38464;DHT22;24243;51.956;5.902;2024-03-02T10:03:18;18.80;49.00
38464;DHT22;24243;51.956;5.902;2024-03-02T10:06:22;18.80;49.10
38464;DHT22;24243;51.956;5.902;2024-03-02T10:09:06;18.80;49.20
38464;DHT22;24243;51.956;5.902;2024-03-02T10:11:50;18.90;49.40
38464;DHT22;24243;51.956;5.902;2024-03-02T10:14:34;18.90;49.50
38464;DHT22;24243;51.956;5.902;2024-03-02T10:17:19;19.00;49.60
38464;DHT22;24243;51.956;5.902;2024-03-02T10:20:36;19.00;49.70
38464;DHT22;24243;51.956;5.902;2024-03-02T10:23:15;19.10;49.80
38464;DHT22;24243;51.956;5.902;2024-03-02T10:26:00;19.20;49.90
38464;DHT22;24243;51.956;5.902;2024-03-02T10:28:47;19.20;50.00
38464;DHT22;24243;51.956;5.902;2024-03-02T10:31:31;19.30;50.10
38464;DHT22;24243;51.956;5.902;2024-03-02T10:34:16;19.40;50.20
38464;DHT22;24243;51.956;5.902;2024-03-02T10:37:00;19.40;50.30
38464;DHT22;24243;51.956;5.902;2024-03-02T10:39:48;19.40;50.40
38464;DHT22;24243;51.956;5.902;2024-03-02T10:42:32;19.50;50.50
38464;DHT22;24243;51.956;5.902;2024-03-02T10:45:16;19.50;50.50
38464;DHT22;24243;51.956;5.902;2024-03-02T10:48:02;19.50;50.60
38464;DHT22;24243;51.956;5.902;2024-03-02T10:50:46;19.60;50.70
38464;DHT22;24243;51.956;5.902;2024-03-02T10:53:31;19.60;50.80
38464;DHT22;24243;51.956;5.902;2024-03-02T10:56:16;19.60;50.80
38464;DHT22;24243;51.956;5.902;2024-03-02T11:02:09;19.70;50.60
38464;DHT22;24243;51.956;5.902;2024-03-02T11:04:55;19.70;50.50
38464;DHT22;24243;51.956;5.902;2024-03-02T11:07:39;19.70;50.30
38464;DHT22;24243;51.956;5.902;2024-03-02T11:10:24;19.70;50.20
38464;DHT22;24243;51.956;5.902;2024-03-02T11:13:09;19.70;50.10
38464;DHT22;24243;51.956;5.902;2024-03-02T11:15:55;19.60;50.00
38464;DHT22;24243;51.956;5.902;2024-03-02T11:18:42;19.60;49.80
38464;DHT22;24243;51.956;5.902;2024-03-02T11:21:27;19.70;49.80
38464;DHT22;24243;51.956;5.902;2024-03-02T11:27:06;19.60;49.70
38464;DHT22;24243;51.956;5.902;2024-03-02T11:29:52;19.60;49.70
38464;DHT22;24243;51.956;5.902;2024-03-02T11:32:36;19.60;49.60
38464;DHT22;24243;51.956;5.902;2024-03-02T11:35:20;19.60;49.60
38464;DHT22;24243;51.956;5.902;2024-03-02T11:38:04;19.60;49.50
38464;DHT22;24243;51.956;5.902;2024-03-02T11:40:50;19.60;49.50
38464;DHT22;24243;51.956;5.902;2024-03-02T11:43:38;19.60;49.40
38464;DHT22;24243;51.956;5.902;2024-03-02T11:46:26;19.50;49.30
38464;DHT22;24243;51.956;5.902;2024-03-02T11:49:10;19.50;49.20
38464;DHT22;24243;51.956;5.902;2024-03-02T11:52:00;19.60;49.20
38464;DHT22;24243;51.956;5.902;2024-03-02T11:54:44;19.50;49.10
38464;DHT22;24243;51.956;5.902;2024-03-02T11:57:32;19.50;49.00
38464;DHT22;24243;51.956;5.902;2024-03-02T12:00:17;19.50;48.90
38464;DHT22;24243;51.956;5.902;2024-03-02T12:03:03;19.50;48.80
38464;DHT22;24243;51.956;5.902;2024-03-02T12:05:53;19.50;48.80
38464;DHT22;24243;51.956;5.902;2024-03-02T12:08:37;19.50;48.70
38464;DHT22;24243;51.956;5.902;2024-03-02T12:11:22;19.40;48.60
38464;DHT22;24243;51.956;5.902;2024-03-02T12:14:10;19.40;48.60
38464;DHT22;24243;51.956;5.902;2024-03-02T12:16:56;19.40;48.50
38464;DHT22;24243;51.956;5.902;2024-03-02T12:19:42;19.40;48.40
38464;DHT22;24243;51.956;5.902;2024-03-02T12:22:26;19.40;48.30
38464;DHT22;24243;51.956;5.902;2024-03-02T12:25:10;19.40;48.30
38464;DHT22;24243;51.956;5.902;2024-03-02T12:27:55;19.40;48.30
38464;DHT22;24243;51.956;5.902;2024-03-02T12:30:40;19.40;48.30
38464;DHT22;24243;51.956;5.902;2024-03-02T12:33:24;19.40;48.20
38464;DHT22;24243;51.956;5.902;2024-03-02T12:36:13;19.40;48.20
38464;DHT22;24243;51.956;5.902;2024-03-02T12:38:57;19.40;48.20
38464;DHT22;24243;51.956;5.902;2024-03-02T12:41:41;19.40;48.10
38464;DHT22;24243;51.956;5.902;2024-03-02T12:44:26;19.40;48.10
38464;DHT22;24243;51.956;5.902;2024-03-02T12:47:10;19.40;48.10
38464;DHT22;24243;51.956;5.902;2024-03-02T12:49:57;19.40;48.00
38464;DHT22;24243;51.956;5.902;2024-03-02T12:52:42;19.40;48.10
38464;DHT22;24243;51.956;5.902;2024-03-02T12:55:26;19.40;48.10
38464;DHT22;24243;51.956;5.902;2024-03-02T12:58:21;19.40;48.10
38464;DHT22;24243;51.956;5.902;2024-03-02T13:01:09;19.40;48.20
38464;DHT22;24243;51.956;5.902;2024-03-02T13:03:54;19.40;48.20
38464;DHT22;24243;51.956;5.902;2024-03-02T13:06:41;19.40;48.30
38464;DHT22;24243;51.956;5.902;2024-03-02T13:09:26;19.50;48.40
38464;DHT22;24243;51.956;5.902;2024-03-02T13:12:10;19.50;48.40
38464;DHT22;24243;51.956;5.902;2024-03-02T13:14:55;19.50;48.50
38464;DHT22;24243;51.956;5.902;2024-03-02T13:17:39;19.50;48.50
38464;DHT22;24243;51.956;5.902;2024-03-02T13:20:23;19.60;48.60
38464;DHT22;24243;51.956;5.902;2024-03-02T13:23:13;19.60;48.70
38464;DHT22;24243;51.956;5.902;2024-03-02T13:25:58;19.60;48.70
38464;DHT22;24243;51.956;5.902;2024-03-02T13:28:42;19.60;48.70
38464;DHT22;24243;51.956;5.902;2024-03-02T13:31:26;19.60;48.80
38464;DHT22;24243;51.956;5.902;2024-03-02T13:34:11;19.70;48.90
38464;DHT22;24243;51.956;5.902;2024-03-02T13:36:55;19.70;48.90
38464;DHT22;24243;51.956;5.902;2024-03-02T13:39:39;19.70;49.00
38464;DHT22;24243;51.956;5.902;2024-03-02T13:42:26;19.70;49.00
38464;DHT22;24243;51.956;5.902;2024-03-02T13:45:11;19.70;49.00
38464;DHT22;24243;51.956;5.902;2024-03-02T13:47:55;19.70;49.00
38464;DHT22;24243;51.956;5.902;2024-03-02T13:50:39;19.80;49.20
38464;DHT22;24243;51.956;5.902;2024-03-02T13:53:24;19.80;49.10
38464;DHT22;24243;51.956;5.902;2024-03-02T13:56:08;19.80;49.00
38464;DHT22;24243;51.956;5.902;2024-03-02T13:58:53;19.80;48.90
38464;DHT22;24243;51.956;5.902;2024-03-02T14:01:37;19.80;48.90
38464;DHT22;24243;51.956;5.902;2024-03-02T14:04:21;19.80;48.90
38464;DHT22;24243;51.956;5.902;2024-03-02T14:07:05;19.80;49.00
38464;DHT22;24243;51.956;5.902;2024-03-02T14:09:54;19.80;49.00
38464;DHT22;24243;51.956;5.902;2024-03-02T14:12:40;19.80;49.10
38464;DHT22;24243;51.956;5.902;2024-03-02T14:15:24;19.80;49.10
38464;DHT22;24243;51.956;5.902;2024-03-02T14:18:09;19.80;49.20
38464;DHT22;24243;51.956;5.902;2024-03-02T14:20:54;19.80;49.20
38464;DHT22;24243;51.956;5.902;2024-03-02T14:23:38;19.80;49.20
38464;DHT22;24243;51.956;5.902;2024-03-02T14:26:23;19.80;49.30
38464;DHT22;24243;51.956;5.902;2024-03-02T14:29:07;19.80;49.30
38464;DHT22;24243;51.956;5.902;2024-03-02T14:31:51;19.80;49.30
38464;DHT22;24243;51.956;5.902;2024-03-02T14:34:36;19.80;49.40
38464;DHT22;24243;51.956;5.902;2024-03-02T14:37:20;19.80;49.40
38464;DHT22;24243;51.956;5.902;2024-03-02T14:40:05;19.80;49.40
38464;DHT22;24243;51.956;5.902;2024-03-02T14:42:50;19.80;49.40
38464;DHT22;24243;51.956;5.902;2024-03-02T14:45:34;19.80;49.50
38464;DHT22;24243;51.956;5.902;2024-03-02T14:48:19;19.80;49.50
38464;DHT22;24243;51.956;5.902;2024-03-02T14:51:03;19.80;49.50
38464;DHT22;24243;51.956;5.902;2024-03-02T14:53:47;19.80;49.60
38464;DHT22;24243;51.956;5.902;2024-03-02T14:56:31;19.90;49.60
38464;DHT22;24243;51.956;5.902;2024-03-02T14:59:16;19.90;49.70
38464;DHT22;24243;51.956;5.902;2024-03-02T15:02:00;19.90;49.70
38464;DHT22;24243;51.956;5.902;2024-03-02T15:04:44;19.90;49.70
38464;DHT22;24243;51.956;5.902;2024-03-02T15:07:29;19.90;49.80
38464;DHT22;24243;51.956;5.902;2024-03-02T15:10:14;19.90;49.80
38464;DHT22;24243;51.956;5.902;2024-03-02T15:12:58;19.90;49.80
38464;DHT22;24243;51.956;5.902;2024-03-02T15:15:42;19.90;49.90
38464;DHT22;24243;51.956;5.902;2024-03-02T15:18:26;19.90;49.90
38464;DHT22;24243;51.956;5.902;2024-03-02T15:21:11;19.90;49.90
38464;DHT22;24243;51.956;5.902;2024-03-02T15:23:55;19.90;50.00
38464;DHT22;24243;51.956;5.902;2024-03-02T15:26:39;19.90;50.00
38464;DHT22;24243;51.956;5.902;2024-03-02T15:29:24;19.90;50.10
38464;DHT22;24243;51.956;5.902;2024-03-02T15:32:12;19.90;50.10
38464;DHT22;24243;51.956;5.902;2024-03-02T15:34:56;19.90;50.00
38464;DHT22;24243;51.956;5.902;2024-03-02T15:37:41;19.90;50.10
38464;DHT22;24243;51.956;5.902;2024-03-02T15:40:25;19.90;50.10
38464;DHT22;24243;51.956;5.902;2024-03-02T15:43:10;19.90;50.10
38464;DHT22;24243;51.956;5.902;2024-03-02T15:45:54;19.80;50.10
38464;DHT22;24243;51.956;5.902;2024-03-02T15:48:38;19.80;50.10
38464;DHT22;24243;51.956;5.902;2024-03-02T15:51:22;19.80;50.20
38464;DHT22;24243;51.956;5.902;2024-03-02T15:54:07;19.80;50.20
38464;DHT22;24243;51.956;5.902;2024-03-02T15:56:51;19.80;50.30
38464;DHT22;24243;51.956;5.902;2024-03-02T15:59:36;19.80;50.30
38464;DHT22;24243;51.956;5.902;2024-03-02T16:02:20;19.80;50.30
38464;DHT22;24243;51.956;5.902;2024-03-02T16:05:04;19.80;50.30
38464;DHT22;24243;51.956;5.902;2024-03-02T16:07:48;19.80;50.40
38464;DHT22;24243;51.956;5.902;2024-03-02T16:10:33;19.80;50.40
38464;DHT22;24243;51.956;5.902;2024-03-02T16:13:17;19.80;50.40
38464;DHT22;24243;51.956;5.902;2024-03-02T16:16:01;19.90;50.50
38464;DHT22;24243;51.956;5.902;2024-03-02T16:18:45;19.90;50.50
38464;DHT22;24243;51.956;5.902;2024-03-02T16:21:29;19.80;50.50
38464;DHT22;24243;51.956;5.902;2024-03-02T16:24:14;19.80;50.50
38464;DHT22;24243;51.956;5.902;2024-03-02T16:26:58;19.90;50.60
38464;DHT22;24243;51.956;5.902;2024-03-02T16:29:42;19.90;50.60
38464;DHT22;24243;51.956;5.902;2024-03-02T16:32:26;19.90;50.70
38464;DHT22;24243;51.956;5.902;2024-03-02T16:35:11;19.80;50.70
38464;DHT22;24243;51.956;5.902;2024-03-02T16:37:55;19.90;50.70
38464;DHT22;24243;51.956;5.902;2024-03-02T16:40:39;19.80;50.70
38464;DHT22;24243;51.956;5.902;2024-03-02T16:43:24;19.80;50.70
38464;DHT22;24243;51.956;5.902;2024-03-02T16:46:08;19.80;50.80
38464;DHT22;24243;51.956;5.902;2024-03-02T16:48:53;19.80;50.80
38464;DHT22;24243;51.956;5.902;2024-03-02T16:51:40;19.80;50.80
38464;DHT22;24243;51.956;5.902;2024-03-02T16:54:24;19.80;50.80
38464;DHT22;24243;51.956;5.902;2024-03-02T16:57:09;19.80;50.90
38464;DHT22;24243;51.956;5.902;2024-03-02T16:59:56;19.80;50.90
38464;DHT22;24243;51.956;5.902;2024-03-02T17:02:41;19.80;50.90
38464;DHT22;24243;51.956;5.902;2024-03-02T17:05:25;19.80;51.00
38464;DHT22;24243;51.956;5.902;2024-03-02T17:08:10;19.80;51.00
38464;DHT22;24243;51.956;5.902;2024-03-02T17:10:54;19.80;51.00
38464;DHT22;24243;51.956;5.902;2024-03-02T17:13:39;19.80;51.00
38464;DHT22;24243;51.956;5.902;2024-03-02T17:16:23;19.80;51.10
38464;DHT22;24243;51.956;5.902;2024-03-02T17:19:08;19.80;51.10
38464;DHT22;24243;51.956;5.902;2024-03-02T17:21:52;19.80;51.10
38464;DHT22;24243;51.956;5.902;2024-03-02T17:24:37;19.80;51.20
38464;DHT22;24243;51.956;5.902;2024-03-02T17:27:21;19.80;51.20
38464;DHT22;24243;51.956;5.902;2024-03-02T17:30:06;19.80;51.20